Time;durP1;ratioP1;P1;durP2;ratioP2;P2;SDS_P1;SDS_P2;PMS_P1;PMS_P2;Temp;Humidity;BMP_temperature;BMP_pressure;BME280_temperature;BME280_humidity;BME280_pressure;Samples;Min_cycle;Max_cycle;Signal;HPM_P1;HPM_P2
2024/04/11 00:00:43;;;;;;;6.93;2.75;;;;;;;12.13;100.00;101474.13;5386900;26;20076;-94
2024/04/11 00:03:09;;;;;;;7.40;2.50;;;;;;;12.06;100.00;101464.97;5386432;26;20006;-94
2024/04/11 00:05:34;;;;;;;8.63;2.63;;;;;;;12.19;100.00;101484.19;5386502;26;20080;-95
2024/04/11 00:07:59;;;;;;;6.72;2.47;;;;;;;12.19;100.00;101479.00;5387064;26;19999;-95
2024/04/11 00:10:25;;;;;;;5.85;2.17;;;;;;;12.11;100.00;101468.19;5387111;26;20000;-95
2024/04/11 00:12:50;;;;;;;6.80;2.40;;;;;;;12.08;100.00;101483.88;5386504;26;19999;-94
2024/04/11 00:15:16;;;;;;;3.90;2.35;;;;;;;12.10;100.00;101482.88;5387167;26;20068;-94
2024/04/11 00:17:42;;;;;;;6.25;2.30;;;;;;;12.16;100.00;101486.94;5386941;26;20456;-95
2024/04/11 00:20:08;;;;;;;5.30;2.97;;;;;;;12.10;100.00;101474.28;5386938;26;20007;-95
2024/04/11 00:22:33;;;;;;;4.95;2.45;;;;;;;12.17;100.00;101483.44;5386834;26;19995;-96
2024/04/11 00:24:59;;;;;;;6.78;3.15;;;;;;;12.11;100.00;101478.53;5386903;26;20002;-94
2024/04/11 00:27:24;;;;;;;6.20;2.60;;;;;;;12.11;100.00;101473.38;5386935;26;20430;-94
2024/04/11 00:29:49;;;;;;;3.83;1.70;;;;;;;12.18;100.00;101469.56;5386794;26;20007;-95
2024/04/11 00:32:15;;;;;;;5.55;1.88;;;;;;;12.18;100.00;101470.41;5386816;26;20362;-94
2024/04/11 00:34:43;;;;;;;4.85;1.80;;;;;;;12.14;100.00;101468.91;5387004;26;20050;-95
2024/04/11 00:37:11;;;;;;;6.53;1.63;;;;;;;12.15;100.00;101464.56;5386622;26;19999;-96
2024/04/11 00:39:37;;;;;;;5.90;1.58;;;;;;;12.16;100.00;101471.41;5386863;26;20004;-95
2024/04/11 00:42:02;;;;;;;3.13;1.33;;;;;;;12.19;100.00;101481.59;5386259;26;20072;-94
2024/04/11 00:44:31;;;;;;;3.10;1.42;;;;;;;12.14;100.00;101468.03;5386709;26;20006;-93
2024/04/11 00:46:57;;;;;;;2.03;0.85;;;;;;;12.19;100.00;101481.59;5386692;26;20078;-95
2024/04/11 00:49:23;;;;;;;3.97;1.42;;;;;;;12.20;100.00;101483.28;5386856;26;20011;-95
2024/04/11 00:51:50;;;;;;;7.18;1.10;;;;;;;12.13;100.00;101462.03;5386268;26;20027;-94
2024/04/11 00:54:17;;;;;;;2.90;1.13;;;;;;;12.13;100.00;101466.38;5386248;26;20007;-96
2024/04/11 00:56:44;;;;;;;1.20;0.90;;;;;;;12.18;100.00;101483.34;5386617;26;19995;-95
2024/04/11 00:59:10;;;;;;;2.67;1.08;;;;;;;12.18;100.00;101470.41;5386448;26;19999;-96
2024/04/11 01:01:36;;;;;;;1.80;1.08;;;;;;;12.11;100.00;101453.50;5386520;26;20368;-94
2024/04/11 01:04:05;;;;;;;2.55;1.33;;;;;;;12.08;100.00;101455.41;5386478;26;20339;-95
2024/04/11 01:07:07;;;;;;;4.70;1.30;;;;;;;12.05;100.00;101447.78;5386607;26;20072;-96
2024/04/11 01:09:34;;;;;;;5.80;1.63;;;;;;;12.09;100.00;101447.53;5386443;26;20028;-96
2024/04/11 01:12:00;;;;;;;2.55;1.20;;;;;;;12.13;100.00;101456.03;5386398;26;20449;-95
2024/04/11 01:14:26;;;;;;;2.58;1.20;;;;;;;12.11;100.00;101458.66;5386384;26;20002;-95
2024/04/11 01:16:53;;;;;;;3.78;1.73;;;;;;;12.02;100.00;101458.25;5386566;26;20325;-96
2024/04/11 01:19:19;;;;;;;2.63;1.50;;;;;;;11.98;100.00;101463.59;5386565;26;20338;-96
2024/04/11 01:21:45;;;;;;;6.47;1.80;;;;;;;12.15;100.00;101485.25;5386455;26;20392;-95
2024/04/11 01:24:13;;;;;;;5.40;2.53;;;;;;;12.00;100.00;101473.88;5385469;26;19996;-95
2024/04/11 01:26:39;;;;;;;3.33;1.95;;;;;;;11.98;100.00;101462.75;5385990;26;20446;-96
2024/04/11 01:29:07;;;;;;;4.60;1.35;;;;;;;12.03;100.00;101465.13;5386064;26;20008;-96
2024/04/11 01:31:34;;;;;;;1.92;1.42;;;;;;;12.07;100.00;101493.38;5386188;26;20449;-95
2024/04/11 01:34:00;;;;;;;5.97;1.65;;;;;;;12.14;100.00;101493.91;5386273;26;20004;-95
2024/04/11 01:36:26;;;;;;;1.60;1.23;;;;;;;12.12;100.00;101488.84;5385333;26;20689;-96
2024/04/11 01:38:51;;;;;;;3.03;1.63;;;;;;;12.08;100.00;101483.88;5385880;26;20004;-95
2024/04/11 01:41:17;;;;;;;2.28;1.35;;;;;;;12.05;100.00;101463.31;5386080;26;20072;-95
2024/04/11 01:43:42;;;;;;;1.25;0.98;;;;;;;12.07;100.00;101470.09;5385116;26;20032;-95
2024/04/11 01:46:07;;;;;;;1.77;1.27;;;;;;;12.05;100.00;101469.31;5385219;26;20000;-95
2024/04/11 01:48:33;;;;;;;3.72;1.15;;;;;;;12.13;100.00;101484.50;5385405;26;20446;-96
2024/04/11 01:50:59;;;;;;;1.55;1.00;;;;;;;12.16;100.00;101492.09;5385074;26;20062;-95
2024/04/11 01:53:24;;;;;;;1.20;0.90;;;;;;;12.15;100.00;101474.91;5384861;26;19999;-95
2024/04/11 01:55:50;;;;;;;3.05;1.00;;;;;;;12.05;100.00;101468.50;5385019;26;20077;-96
2024/04/11 01:58:18;;;;;;;1.88;1.05;;;;;;;12.04;100.00;101472.81;5384985;26;20000;-94
2024/04/11 02:00:44;;;;;;;3.55;1.02;;;;;;;12.06;100.00;101477.91;5385376;26;19999;-95
2024/04/11 02:03:11;;;;;;;2.92;1.08;;;;;;;12.08;100.00;101486.47;5384647;26;20523;-95
2024/04/11 02:05:36;;;;;;;1.05;0.82;;;;;;;12.16;100.00;101484.34;5384989;26;20009;-94
2024/04/11 02:08:02;;;;;;;1.63;1.00;;;;;;;12.13;100.00;101498.25;5384513;26;19999;-95
2024/04/11 02:10:30;;;;;;;5.20;1.08;;;;;;;12.10;100.00;101492.41;5384664;26;20466;-94
2024/04/11 02:12:56;;;;;;;4.75;1.05;;;;;;;12.07;100.00;101482.19;5384353;26;20007;-96
2024/04/11 02:15:24;;;;;;;2.45;1.52;;;;;;;12.08;100.00;101500.22;5384370;26;20329;-95
2024/04/11 02:17:50;;;;;;;1.67;0.60;;;;;;;12.06;100.00;101517.56;5383140;26;19996;-96
2024/04/11 02:20:16;;;;;;;1.55;0.70;;;;;;;12.04;100.00;101503.84;5384318;26;20026;-95
2024/04/11 02:22:42;;;;;;;2.53;0.80;;;;;;;12.03;100.00;101496.19;5384888;26;20035;-94
2024/04/11 02:25:07;;;;;;;2.20;0.80;;;;;;;11.99;100.00;101506.66;5384596;26;20003;-95
2024/04/11 02:27:34;;;;;;;1.42;0.77;;;;;;;11.99;100.00;101491.13;5384101;26;20049;-93
2024/04/11 02:29:59;;;;;;;1.80;0.50;;;;;;;12.01;100.00;101509.19;5384077;26;19996;-94
2024/04/11 02:32:27;;;;;;;2.28;0.77;;;;;;;12.08;100.00;101518.34;5384573;26;20014;-94
2024/04/11 02:34:52;;;;;;;0.82;0.70;;;;;;;11.97;100.00;101505.91;5384197;26;20003;-94
2024/04/11 02:37:18;;;;;;;2.05;0.70;;;;;;;12.07;100.00;101526.16;5387942;26;20006;-94
2024/04/11 02:39:44;;;;;;;1.05;0.50;;;;;;;12.02;100.00;101510.00;5387471;26;20538;-95
2024/04/11 02:42:10;;;;;;;1.27;0.40;;;;;;;12.09;100.00;101514.00;5387603;26;19999;-95
2024/04/11 02:44:35;;;;;;;1.00;0.47;;;;;;;12.12;100.00;101521.59;5387689;26;19996;-95
2024/04/11 02:47:01;;;;;;;0.85;0.25;;;;;;;12.09;100.00;101525.19;5387664;26;20011;-94
2024/04/11 02:49:27;;;;;;;2.17;0.32;;;;;;;12.12;100.00;101519.03;5387471;26;20008;-94
2024/04/11 02:51:53;;;;;;;0.73;0.20;;;;;;;12.21;100.00;101526.38;5387535;26;20073;-95
2024/04/11 02:54:19;;;;;;;2.38;0.35;;;;;;;12.11;100.00;101509.59;5387494;26;19999;-94
2024/04/11 02:56:45;;;;;;;1.23;0.38;;;;;;;12.13;100.00;101515.53;5387733;26;20000;-96
2024/04/11 02:59:11;;;;;;;0.55;0.50;;;;;;;12.15;100.00;101524.06;5387389;26;20460;-95
2024/04/11 03:01:37;;;;;;;0.85;0.40;;;;;;;12.08;100.00;101514.91;5388030;26;20004;-95
2024/04/11 03:04:03;;;;;;;0.35;0.30;;;;;;;12.16;100.00;101516.22;5388108;26;19995;-94
2024/04/11 03:06:28;;;;;;;1.48;0.20;;;;;;;12.12;100.00;101530.25;5387762;26;20026;-96
2024/04/11 03:08:56;;;;;;;1.20;0.40;;;;;;;12.06;100.00;101519.31;5388250;26;19996;-96
2024/04/11 03:11:23;;;;;;;1.60;0.60;;;;;;;12.10;100.00;101515.69;5387891;26;20070;-95
2024/04/11 03:13:50;;;;;;;0.90;0.30;;;;;;;12.13;100.00;101526.72;5388215;26;20000;-94
2024/04/11 03:16:15;;;;;;;0.75;0.20;;;;;;;12.11;100.00;101535.47;5387650;26;19995;-95
2024/04/11 03:18:41;;;;;;;0.88;0.40;;;;;;;12.12;100.00;101538.00;5387669;26;20466;-95
2024/04/11 03:21:07;;;;;;;0.90;0.40;;;;;;;12.17;100.00;101541.22;5388145;26;20326;-95
2024/04/11 03:23:32;;;;;;;1.33;0.30;;;;;;;12.20;100.00;101555.75;5387802;26;20440;-96
2024/04/11 03:25:58;;;;;;;0.90;0.32;;;;;;;12.16;100.00;101549.03;5387830;26;20010;-94
2024/04/11 03:28:25;;;;;;;0.10;0.10;;;;;;;12.20;100.00;101555.75;5387567;26;20007;-95
2024/04/11 03:30:57;;;;;;;0.77;0.43;;;;;;;12.29;100.00;101563.09;5387563;26;20438;-95
2024/04/11 03:33:26;;;;;;;2.55;0.30;;;;;;;12.20;100.00;101542.81;5387415;26;19995;-95
2024/04/11 03:36:00;;;;;;;1.05;0.40;;;;;;;12.15;100.00;101543.03;5387473;26;20030;-95
2024/04/11 03:38:26;;;;;;;0.88;0.30;;;;;;;12.18;100.00;101557.56;5387390;26;20045;-94
2024/04/11 03:40:55;;;;;;;0.30;0.25;;;;;;;12.20;100.00;101543.66;5387773;26;19995;-95
2024/04/11 03:43:22;;;;;;;0.43;0.38;;;;;;;12.14;100.00;101541.38;5387718;26;20003;-95
2024/04/11 03:45:47;;;;;;;1.08;0.20;;;;;;;12.13;100.00;101544.00;5387176;26;19996;-94
2024/04/11 03:48:13;;;;;;;1.60;0.20;;;;;;;12.17;100.00;101540.38;5387177;26;20042;-96
2024/04/11 03:50:39;;;;;;;0.75;0.20;;;;;;;12.05;100.00;101520.25;5387861;26;20008;-95
2024/04/11 03:53:05;;;;;;;0.40;0.30;;;;;;;12.07;100.00;101539.97;5387563;26;19999;-94
2024/04/11 03:55:31;;;;;;;0.30;0.10;;;;;;;12.13;100.00;101552.59;5388042;26;20044;-95
2024/04/11 03:57:58;;;;;;;0.10;0.10;;;;;;;12.14;100.00;101562.06;5387623;26;20065;-94
2024/04/11 04:00:24;;;;;;;0.15;0.10;;;;;;;12.09;100.00;101565.75;5387613;26;20011;-95
2024/04/11 04:02:51;;;;;;;0.57;0.20;;;;;;;12.08;100.00;101570.09;5387450;26;20037;-96
2024/04/11 04:05:16;;;;;;;0.10;0.10;;;;;;;12.08;100.00;101562.34;5386892;26;20005;-95
2024/04/11 04:07:42;;;;;;;0.77;0.20;;;;;;;12.12;100.00;101579.41;5386488;26;20449;-95
2024/04/11 04:10:08;;;;;;;0.17;0.13;;;;;;;12.10;100.00;101577.81;5386863;26;20068;-95
2024/04/11 04:12:33;;;;;;;0.10;0.10;;;;;;;12.04;100.00;101572.88;5386846;26;20507;-95
2024/04/11 04:14:58;;;;;;;0.52;0.20;;;;;;;12.06;100.00;101573.66;5386670;26;19999;-96
2024/04/11 04:17:27;;;;;;;0.22;0.10;;;;;;;12.07;100.00;101585.69;5386337;26;20519;-95
2024/04/11 04:19:52;;;;;;;0.10;0.10;;;;;;;12.05;100.00;101593.53;5386197;26;20010;-95
2024/04/11 04:22:17;;;;;;;0.35;0.20;;;;;;;12.11;100.00;101588.06;5386743;26;20007;-95
2024/04/11 04:24:43;;;;;;;1.08;0.20;;;;;;;12.09;100.00;101586.47;5386699;26;19996;-96
2024/04/11 04:27:08;;;;;;;0.25;0.10;;;;;;;12.10;100.00;101585.56;5386288;26;20007;-95
2024/04/11 04:29:37;;;;;;;0.08;0.08;;;;;;;12.10;100.00;101583.81;5386289;26;20001;-95
2024/04/11 04:32:04;;;;;;;1.08;0.10;;;;;;;12.16;100.00;101585.28;5386677;26;20004;-95
2024/04/11 04:34:29;;;;;;;0.55;0.17;;;;;;;12.13;100.00;101580.25;5386372;26;19996;-95
2024/04/11 04:36:55;;;;;;;0.20;0.20;;;;;;;12.11;100.00;101592.41;5386500;26;19995;-96
2024/04/11 04:39:30;;;;;;;1.58;0.30;;;;;;;12.04;100.00;101583.25;5386465;26;19999;-94
2024/04/11 04:41:56;;;;;;;1.13;0.28;;;;;;;11.95;100.00;101592.28;5385949;26;20427;-94
2024/04/11 04:44:22;;;;;;;0.22;0.20;;;;;;;12.07;100.00;101596.03;5386143;26;20020;-95
2024/04/11 04:46:47;;;;;;;2.53;0.28;;;;;;;12.07;100.00;101606.38;5386252;26;19995;-95
2024/04/11 04:49:13;;;;;;;0.82;0.40;;;;;;;12.02;100.00;101603.16;5386366;26;19996;-95
2024/04/11 04:51:39;;;;;;;0.20;0.20;;;;;;;12.04;100.00;101609.13;5385914;26;19995;-96
2024/04/11 04:54:04;;;;;;;1.23;0.43;;;;;;;12.09;100.00;101618.34;5386153;26;20019;-95
2024/04/11 04:56:32;;;;;;;0.20;0.13;;;;;;;12.03;100.00;101615.22;5386154;26;20000;-96
2024/04/11 04:58:58;;;;;;;0.10;0.10;;;;;;;11.97;100.00;101604.22;5384831;26;20037;-94
2024/04/11 05:01:26;;;;;;;0.38;0.20;;;;;;;12.06;100.00;101609.91;5385476;26;20045;-96
2024/04/11 05:03:53;;;;;;;2.08;0.22;;;;;;;12.09;100.00;101612.34;5385861;26;20004;-96
2024/04/11 05:06:18;;;;;;;0.25;0.10;;;;;;;11.97;100.00;101601.66;5385822;26;20034;-94
2024/04/11 05:08:49;;;;;;;0.30;0.20;;;;;;;12.09;100.00;101617.50;5386116;26;20073;-94
2024/04/11 05:11:16;;;;;;;1.23;0.10;;;;;;;12.04;100.00;101606.53;5385336;26;19995;-96
2024/04/11 05:13:43;;;;;;;0.90;0.25;;;;;;;12.08;100.00;101621.84;5385720;26;20040;-94
2024/04/11 05:16:09;;;;;;;0.10;0.10;;;;;;;12.03;100.00;101635.91;5386309;26;20452;-96
2024/04/11 05:18:38;;;;;;;1.88;0.25;;;;;;;12.09;100.00;101630.44;5386456;26;20023;-95
2024/04/11 05:21:05;;;;;;;1.50;0.28;;;;;;;11.98;100.00;101624.00;5386297;26;19996;-96
2024/04/11 05:23:32;;;;;;;0.40;0.20;;;;;;;12.02;100.00;101608.34;5386346;26;20031;-96
2024/04/11 05:25:59;;;;;;;2.72;0.20;;;;;;;12.05;100.00;101609.06;5386380;26;20010;-96
2024/04/11 05:28:34;;;;;;;3.00;0.40;;;;;;;12.03;100.00;101615.22;5386178;26;20136;-95
2024/04/11 05:31:06;;;;;;;0.77;0.35;;;;;;;12.03;100.00;101635.91;5385581;26;19996;-95
2024/04/11 05:33:34;;;;;;;1.08;0.30;;;;;;;11.97;100.00;101627.53;5385684;26;20015;-95
2024/04/11 05:35:59;;;;;;;1.20;0.85;;;;;;;12.04;100.00;101647.94;5386184;26;20057;-95
2024/04/11 05:38:27;;;;;;;1.88;0.30;;;;;;;11.99;100.00;101648.97;5385914;26;20391;-95
2024/04/11 05:40:52;;;;;;;2.55;0.35;;;;;;;12.06;100.00;101669.41;5386305;26;20007;-95
2024/04/11 05:43:20;;;;;;;1.90;0.40;;;;;;;12.06;100.00;101664.25;5385851;26;19999;-95
2024/04/11 05:45:46;;;;;;;1.42;0.40;;;;;;;12.02;100.00;101660.09;5386119;26;20457;-94
2024/04/11 05:48:12;;;;;;;0.75;0.40;;;;;;;12.06;100.00;101672.00;5385202;26;20003;-95
2024/04/11 05:50:38;;;;;;;1.98;0.50;;;;;;;12.07;100.00;101673.66;5385940;26;20019;-95
2024/04/11 05:53:06;;;;;;;0.98;0.28;;;;;;;12.03;100.00;101661.78;5385806;26;19995;-95
2024/04/11 05:55:34;;;;;;;0.77;0.30;;;;;;;12.10;100.00;101658.03;5385661;26;19996;-96
2024/04/11 05:58:00;;;;;;;3.20;0.30;;;;;;;12.07;100.00;101668.50;5385858;26;20496;-96
2024/04/11 06:00:29;;;;;;;6.18;0.68;;;;;;;12.06;100.00;101672.84;5386182;26;20007;-95
2024/04/11 06:02:55;;;;;;;0.75;0.30;;;;;;;12.12;100.00;101676.88;5385464;26;20336;-94
2024/04/11 06:05:20;;;;;;;1.92;0.50;;;;;;;12.09;100.00;101687.38;5385486;26;20007;-95
2024/04/11 06:07:46;;;;;;;0.93;0.40;;;;;;;12.08;100.00;101689.13;5385604;26;20007;-95
2024/04/11 06:10:11;;;;;;;3.90;0.55;;;;;;;12.11;100.00;101696.75;5387744;26;19991;-95
2024/04/11 06:12:38;;;;;;;1.20;0.40;;;;;;;12.14;100.00;101686.28;5388808;26;20004;-95
2024/04/11 06:15:03;;;;;;;5.57;0.40;;;;;;;12.11;100.00;101693.34;5389155;26;19996;-96
2024/04/11 06:17:29;;;;;;;1.52;0.50;;;;;;;12.13;100.00;101697.53;5388936;26;20031;-94
2024/04/11 06:19:55;;;;;;;2.30;0.30;;;;;;;12.15;100.00;101687.13;5388843;26;20355;-95
2024/04/11 06:22:21;;;;;;;1.85;0.20;;;;;;;12.24;100.00;101697.09;5389058;26;19999;-95
2024/04/11 06:24:47;;;;;;;0.95;0.15;;;;;;;12.24;100.00;101697.09;5389259;26;20077;-94
2024/04/11 06:27:16;;;;;;;0.75;0.40;;;;;;;12.28;100.00;101688.25;5388858;26;20063;-95
2024/04/11 06:29:42;;;;;;;0.63;0.20;;;;;;;12.35;100.00;101705.19;5387681;26;20014;-95
2024/04/11 06:32:12;;;;;;;0.65;0.28;;;;;;;12.30;100.00;101701.97;5388403;26;20572;-95
2024/04/11 06:34:41;;;;;;;0.57;0.30;;;;;;;12.36;100.00;101706.91;5388666;26;20260;-95
2024/04/11 06:37:11;;;;;;;7.45;0.57;;;;;;;12.40;100.00;101713.59;5388430;26;19996;-95
2024/04/11 06:39:39;;;;;;;27.80;0.75;;;;;;;12.39;100.00;101705.91;5388464;26;20068;-95
2024/04/11 06:42:13;;;;;;;1.60;0.45;;;;;;;12.52;100.00;101711.38;5388482;26;19995;-95
2024/04/11 06:44:45;;;;;;;1.08;0.50;;;;;;;12.55;100.00;101695.69;5388137;26;20006;-95
2024/04/11 06:47:12;;;;;;;1.23;0.38;;;;;;;12.64;100.00;101713.41;5388341;26;19999;-95
2024/04/11 06:49:39;;;;;;;3.03;0.15;;;;;;;12.64;100.00;101703.03;5388234;26;19995;-96
2024/04/11 06:52:05;;;;;;;3.05;0.20;;;;;;;12.56;100.00;101694.78;5388674;26;19996;-94
2024/04/11 06:54:30;;;;;;;31.25;1.50;;;;;;;12.56;100.00;101710.34;5387965;26;20398;-93
2024/04/11 06:56:59;;;;;;;0.88;0.20;;;;;;;12.48;100.00;101707.22;5388177;26;20010;-94
2024/04/11 06:59:24;;;;;;;1.13;0.20;;;;;;;12.52;100.00;101721.72;5387970;26;20096;-95
2024/04/11 07:01:51;;;;;;;0.75;0.32;;;;;;;12.47;100.00;101723.69;5388269;26;19999;-95
2024/04/11 07:04:17;;;;;;;0.93;0.10;;;;;;;12.47;100.00;101729.72;5387860;26;20330;-95
2024/04/11 07:06:46;;;;;;;1.38;0.38;;;;;;;12.39;100.00;101724.88;5387889;26;20011;-95
2024/04/11 07:09:11;;;;;;;0.43;0.20;;;;;;;12.47;100.00;101749.59;5387909;26;20018;-96
2024/04/11 07:11:40;;;;;;;0.63;0.10;;;;;;;12.45;100.00;101743.63;5388045;26;20450;-94
2024/04/11 07:14:11;;;;;;;0.35;0.10;;;;;;;12.47;100.00;101749.59;5387964;26;19995;-93
2024/04/11 07:16:40;;;;;;;0.60;0.10;;;;;;;12.43;100.00;101749.69;5387869;26;20006;-94
2024/04/11 07:19:09;;;;;;;1.27;0.25;;;;;;;12.56;100.00;101755.19;5387585;26;19999;-94
2024/04/11 07:21:38;;;;;;;2.45;0.20;;;;;;;12.58;100.00;101758.56;5386836;26;19995;-95
2024/04/11 07:24:05;;;;;;;0.88;0.20;;;;;;;12.58;100.00;101752.53;5387136;26;19999;-95
2024/04/11 07:26:34;;;;;;;0.65;0.20;;;;;;;12.73;100.00;101772.56;5388179;26;20334;-95
2024/04/11 07:29:03;;;;;;;0.63;0.30;;;;;;;12.68;100.00;101764.19;5387819;26;19995;-95
2024/04/11 07:31:30;;;;;;;0.47;0.10;;;;;;;12.83;100.00;101780.78;5388088;26;20008;-95
2024/04/11 07:33:58;;;;;;;1.88;0.20;;;;;;;12.80;100.00;101773.97;5387053;26;20004;-95
2024/04/11 07:36:25;;;;;;;0.10;0.10;;;;;;;12.90;100.00;101789.94;5387672;26;19999;-96
2024/04/11 07:38:53;;;;;;;0.20;0.20;;;;;;;12.95;100.00;101788.00;5388017;26;20000;-94
2024/04/11 07:41:23;;;;;;;0.38;0.00;;;;;;;12.97;100.00;101775.81;5388030;26;20318;-95
2024/04/11 07:43:55;;;;;;;0.40;0.13;;;;;;;13.11;100.00;101762.19;5387938;26;20006;-95
2024/04/11 07:46:28;;;;;;;;;;;;;;;13.24;100.00;101776.25;5388066;26;19999;-95
2024/04/11 07:48:55;;;;;;;0.47;0.20;;;;;;;13.23;100.00;101760.78;5387735;26;19987;-96
2024/04/11 07:51:21;;;;;;;4.80;0.20;;;;;;;13.40;100.00;101772.97;5387901;26;20006;-96
2024/04/11 07:53:51;;;;;;;1.25;0.20;;;;;;;13.58;100.00;101779.00;5388785;26;19992;-95
2024/04/11 07:56:21;;;;;;;0.60;0.10;;;;;;;13.77;100.00;101789.34;5387909;26;20031;-94
2024/04/11 07:58:53;;;;;;;0.82;0.10;;;;;;;13.67;100.00;101774.22;5385508;26;20450;-93
2024/04/11 08:01:30;;;;;;;2.58;0.08;;;;;;;13.77;100.00;101771.16;5385800;26;20011;-95
2024/04/11 08:03:56;;;;;;;0.63;0.10;;;;;;;13.91;100.00;101785.13;5387938;26;20345;-92
2024/04/11 08:06:22;;;;;;;0.25;0.10;;;;;;;13.80;100.00;101766.69;5383176;26;20631;-95
2024/04/11 08:08:51;;;;;;;1.17;0.20;;;;;;;13.99;100.00;101782.16;5383877;26;20080;-95
2024/04/11 08:11:16;;;;;;;1.65;0.25;;;;;;;13.97;100.00;101778.78;5379532;26;20015;-94
2024/04/11 08:13:44;;;;;;;0.85;0.10;;;;;;;14.06;100.00;101788.72;5380188;26;20445;-93
2024/04/11 08:16:10;;;;;;;0.10;0.10;;;;;;;14.08;100.00;101788.66;5380091;26;20006;-93
2024/04/11 08:18:37;;;;;;;0.43;0.10;;;;;;;14.18;100.00;101786.44;5379666;26;20047;-94
2024/04/11 08:21:09;;;;;;;0.43;0.03;;;;;;;14.05;100.00;101800.03;5378129;26;19995;-93
2024/04/11 08:23:36;;;;;;;0.20;0.10;;;;;;;14.05;100.00;101792.25;5411190;26;19998;-94
2024/04/11 08:26:01;;;;;;;1.75;0.13;;;;;;;14.24;100.00;101801.69;5410352;26;20405;-93
2024/04/11 08:28:27;;;;;;;1.95;0.30;;;;;;;14.55;100.00;101807.00;5383818;26;20007;-94
2024/04/11 08:30:53;;;;;;;2.25;0.30;;;;;;;14.43;100.00;101812.81;5384286;26;20069;-93
2024/04/11 08:33:20;;;;;;;0.52;0.20;;;;;;;14.54;100.00;101810.53;5383234;26;20318;-95
2024/04/11 08:35:47;;;;;;;2.92;0.30;;;;;;;14.67;100.00;101804.69;5382876;26;20434;-93
2024/04/11 08:38:15;;;;;;;0.70;0.20;;;;;;;14.85;100.00;101811.53;5382962;26;20011;-94
2024/04/11 08:40:44;;;;;;;1.40;0.28;;;;;;;14.88;100.00;101819.16;5382828;26;20011;-93
2024/04/11 08:43:12;;;;;;;1.65;0.30;;;;;;;14.88;100.00;101819.16;5384779;26;20003;-93
2024/04/11 08:45:41;;;;;;;1.20;0.43;;;;;;;14.67;100.00;101809.88;5384012;26;20003;-96
2024/04/11 08:48:07;;;;;;;0.05;0.05;;;;;;;14.62;100.00;101817.91;5414132;26;19995;-94
2024/04/11 08:50:34;;;;;;;0.57;0.10;;;;;;;14.72;100.00;101824.31;5382735;26;20004;-93
2024/04/11 08:53:25;;;;;;;1.38;0.20;;;;;;;14.95;100.00;101830.91;5421062;26;19999;-96
2024/04/11 08:55:54;;;;;;;0.63;0.10;;;;;;;14.78;100.00;101828.38;5391302;26;20003;-95
2024/04/11 08:58:21;;;;;;;0.77;0.10;;;;;;;14.64;100.00;101841.25;5377803;26;20016;-93
2024/04/11 09:00:50;;;;;;;1.55;0.10;;;;;;;14.75;100.00;101851.88;5378470;26;20017;-95
2024/04/11 09:03:15;;;;;;;0.25;0.17;;;;;;;14.73;100.00;101861.56;5375166;26;20023;-92
2024/04/11 09:05:43;;;;;;;2.22;0.30;;;;;;;14.86;100.00;101872.97;5372199;26;20004;-93
2024/04/11 09:08:11;;;;;;;0.52;0.13;;;;;;;14.87;100.00;101874.63;5406467;26;20007;-96
2024/04/11 09:10:38;;;;;;;1.60;0.32;;;;;;;14.92;100.00;101867.47;5386115;26;20022;-95
2024/04/11 09:13:04;;;;;;;0.65;0.20;;;;;;;15.11;100.00;101882.06;5396202;26;20033;-96
2024/04/11 09:15:29;;;;;;;0.13;0.05;;;;;;;15.17;100.00;101893.00;5380958;26;20041;-92
2024/04/11 09:17:56;;;;;;;0.95;0.20;;;;;;;15.20;100.00;101907.59;5376933;26;20013;-93
2024/04/11 09:20:24;;;;;;;0.68;0.10;;;;;;;15.33;100.00;101897.38;5378493;26;20010;-92
2024/04/11 09:22:59;;;;;;;2.15;0.20;;;;;;;15.42;100.00;101902.06;5410679;26;20046;-95
2024/04/11 09:25:31;;;;;;;1.10;0.10;;;;;;;15.55;100.00;101904.84;5383054;26;20460;-96
2024/04/11 09:28:00;;;;;;;1.20;0.10;;;;;;;15.66;100.00;101904.25;5381469;26;20007;-95
2024/04/11 09:30:32;;;;;;;0.15;0.10;;;;;;;15.76;100.00;101890.66;5384538;26;19995;-94
2024/04/11 09:33:04;;;;;;;0.52;0.20;;;;;;;15.88;100.00;101898.72;5382237;26;20000;-93
2024/04/11 09:35:35;;;;;;;1.40;0.10;;;;;;;15.98;100.00;101905.09;5378823;26;20010;-94
2024/04/11 09:38:02;;;;;;;0.20;0.10;;;;;;;16.10;100.00;101895.75;5380017;26;19999;-95
2024/04/11 09:40:33;;;;;;;0.10;0.00;;;;;;;17.19;100.00;101895.31;5382599;26;20350;-96
2024/04/11 09:43:04;;;;;;;3.10;0.10;;;;;;;17.51;100.00;101895.91;5398096;26;20433;-96
2024/04/11 09:45:36;;;;;;;0.65;0.22;;;;;;;17.35;100.00;101900.41;5379115;26;20014;-95
2024/04/11 09:48:03;;;;;;;0.70;0.10;;;;;;;17.67;100.00;101902.75;5378144;26;20337;-96
2024/04/11 09:50:30;;;;;;;1.33;0.10;;;;;;;18.46;100.00;101898.47;5380064;26;20004;-95
2024/04/11 09:52:59;;;;;;;0.73;0.52;;;;;;;18.88;100.00;101892.13;5379364;26;19995;-94
2024/04/11 09:55:33;;;;;;;0.20;0.10;;;;;;;18.96;100.00;101896.81;5373785;26;20022;-93
2024/04/11 09:58:00;;;;;;;0.17;0.10;;;;;;;19.22;100.00;101903.69;5375435;26;20050;-94
2024/04/11 10:03:17;;;;;;;0.17;0.10;;;;;;;18.19;100.00;101912.44;5409862;26;20014;-95
2024/04/11 10:05:45;;;;;;;0.28;0.10;;;;;;;17.80;100.00;101901.06;5378249;26;20589;-95
2024/04/11 10:08:27;;;;;;;4.28;0.10;;;;;;;18.25;100.00;101900.75;5377644;26;20007;-94
2024/04/11 10:10:54;;;;;;;;;;;;;;;18.25;100.00;101898.97;5389418;26;20100;-95
2024/04/11 10:13:23;;;;;;;0.00;0.00;;;;;;;18.44;100.00;101909.03;5409617;26;20379;-94
2024/04/11 10:15:51;;;;;;;0.35;0.00;;;;;;;18.32;100.00;101896.78;5377386;26;20073;-95
2024/04/11 10:18:16;;;;;;;0.45;0.10;;;;;;;18.12;100.00;101891.13;5377227;26;20001;-96
2024/04/11 10:20:59;;;;;;;5.32;0.22;;;;;;;18.27;100.00;101904.94;5379289;26;20018;-95
2024/04/11 10:23:25;;;;;;;0.45;0.17;;;;;;;17.84;100.00;101912.97;5375285;26;20011;-95
2024/04/11 10:25:51;;;;;;;0.70;0.10;;;;;;;17.59;100.00;101912.84;5378834;26;19995;-94
2024/04/11 10:28:18;;;;;;;0.20;0.00;;;;;;;17.81;100.00;101905.34;5378324;26;20026;-95
2024/04/11 10:30:50;;;;;;;0.65;0.10;;;;;;;17.45;100.00;101900.66;5378750;26;20037;-96
2024/04/11 10:33:29;;;;;;;0.17;0.10;;;;;;;18.14;100.00;101909.28;5375257;26;19999;-94
2024/04/11 10:35:57;;;;;;;1.13;0.13;;;;;;;18.38;100.00;101898.97;5373834;26;20004;-96
2024/04/11 10:38:27;;;;;;;20.35;0.68;;;;;;;18.48;100.00;101899.19;5377017;26;20003;-94
2024/04/11 10:40:53;;;;;;;1.48;0.15;;;;;;;18.81;100.00;101894.31;5394844;26;19996;-94
2024/04/11 10:43:24;;;;;;;2.53;0.40;;;;;;;19.19;100.00;101893.44;5393695;26;20000;-94
2024/04/11 10:45:50;;;;;;;22.77;0.63;;;;;;;19.85;100.00;101904.41;5377069;26;20010;-94
2024/04/11 10:48:16;;;;;;;1999.90;255.82;;;;;;;20.07;100.00;101894.97;5379104;26;20007;-96
2024/04/11 10:50:42;;;;;;;36.67;10.15;;;;;;;20.44;100.00;101906.16;5377850;26;20011;-95
2024/04/11 10:53:12;;;;;;;705.03;90.63;;;;;;;20.59;100.00;101900.72;5383290;26;19996;-95
2024/04/11 10:55:43;;;;;;;230.68;65.45;;;;;;;20.49;100.00;101896.13;5378493;26;20077;-95
2024/04/11 10:58:22;;;;;;;37.13;11.40;;;;;;;20.86;100.00;101903.81;5381995;26;20040;-95
2024/04/11 11:03:46;;;;;;;38.47;10.50;;;;;;;21.32;99.29;101900.19;5412506;26;20440;-95
2024/04/11 11:06:14;;;;;;;13.88;3.38;;;;;;;20.83;98.58;101904.06;5381417;26;20003;-96
2024/04/11 11:08:43;;;;;;;32.45;4.78;;;;;;;20.92;100.00;101898.13;5381463;26;20004;-95
2024/04/11 11:11:18;;;;;;;172.27;41.45;;;;;;;20.42;100.00;101901.97;5378025;26;20023;-96
2024/04/11 11:13:44;;;;;;;24.08;6.50;;;;;;;20.69;98.99;101901.69;5380427;26;20010;-95
2024/04/11 11:16:13;;;;;;;85.20;22.50;;;;;;;20.87;100.00;101904.66;5384246;26;20014;-95
2024/04/11 11:18:43;;;;;;;39.80;12.57;;;;;;;21.17;98.78;101907.50;5398657;26;20014;-95
2024/04/11 11:21:13;;;;;;;338.80;93.00;;;;;;;21.47;96.74;101902.59;5390812;26;19999;-96
2024/04/11 11:23:38;;;;;;;36.25;10.07;;;;;;;21.09;95.18;101888.06;5385641;26;20810;-96